createdAt,value
2023-11-12T00:01:01.356Z,5.03
2023-11-12T00:03:29.225Z,5.03
2023-11-12T00:05:58.052Z,5.11
2023-11-12T00:08:27.905Z,4.94
2023-11-12T00:10:55.812Z,5.02
2023-11-12T00:13:23.699Z,5.07
2023-11-12T00:15:52.932Z,5.11
2023-11-12T00:18:20.849Z,5.15
2023-11-12T00:20:48.955Z,5.12
2023-11-12T00:23:16.746Z,5.11
2023-11-12T00:25:45.904Z,5.12
2023-11-12T00:28:13.733Z,5.12
2023-11-12T00:30:42.662Z,4.99
2023-11-12T00:33:10.683Z,5.02
2023-11-12T00:35:38.514Z,5.02
2023-11-12T00:38:06.517Z,5.01
2023-11-12T00:40:34.209Z,5.07
2023-11-12T00:43:03.933Z,5.04
2023-11-12T00:45:32.042Z,4.98
2023-11-12T00:47:59.968Z,4.91
2023-11-12T00:50:27.721Z,4.89
2023-11-12T00:52:55.445Z,4.92
2023-11-12T00:55:23.394Z,4.87
2023-11-12T00:57:51.160Z,4.85
2023-11-12T01:00:20.690Z,4.84
2023-11-12T01:02:48.613Z,4.68
2023-11-12T01:05:17.040Z,4.65
2023-11-12T01:07:44.761Z,4.73
2023-11-12T01:10:13.510Z,4.82
2023-11-12T01:12:41.294Z,4.82
2023-11-12T01:15:09.572Z,4.75
2023-11-12T01:17:38.896Z,4.69
2023-11-12T01:20:11.057Z,4.77
2023-11-12T01:22:38.901Z,4.89
2023-11-12T01:25:07.774Z,4.88
2023-11-12T01:27:35.636Z,4.88
2023-11-12T01:30:04.217Z,4.86
2023-11-12T01:32:32.023Z,4.92
2023-11-12T01:35:01.404Z,4.95
2023-11-12T01:37:29.135Z,4.97
2023-11-12T01:39:57.083Z,4.95
2023-11-12T01:42:26.444Z,4.95
2023-11-12T01:44:54.360Z,4.94
2023-11-12T01:47:22.149Z,4.95
2023-11-12T01:49:50.264Z,4.93
2023-11-12T01:52:20.018Z,4.93
2023-11-12T01:54:48.622Z,5.02
2023-11-12T01:57:16.443Z,4.94
2023-11-12T01:59:44.617Z,4.86
2023-11-12T02:02:13.744Z,4.70
2023-11-12T02:04:41.937Z,4.80
2023-11-12T02:07:09.801Z,4.71
2023-11-12T02:09:38.964Z,4.68
2023-11-12T02:12:07.862Z,4.54
2023-11-12T02:14:35.905Z,4.54
2023-11-12T02:17:03.640Z,4.47
2023-11-12T02:19:31.981Z,4.44
2023-11-12T02:21:59.915Z,4.44
2023-11-12T02:24:29.072Z,4.46
2023-11-12T02:26:56.821Z,4.48
2023-11-12T02:29:24.574Z,4.43
2023-11-12T02:31:52.269Z,4.43
2023-11-12T02:34:20.692Z,4.46
2023-11-12T02:36:48.434Z,4.54
2023-11-12T02:39:17.218Z,4.52
2023-11-12T02:41:47.338Z,4.47
2023-11-12T02:44:15.990Z,4.40
2023-11-12T02:46:43.788Z,4.32
2023-11-12T02:49:34.249Z,4.24
2023-11-12T02:52:02.425Z,4.21
2023-11-12T02:54:30.159Z,4.28
2023-11-12T02:56:59.276Z,4.26
2023-11-12T02:59:27.001Z,4.21
2023-11-12T03:01:54.700Z,4.24
2023-11-12T03:04:22.555Z,4.28
2023-11-12T03:06:50.476Z,4.25
2023-11-12T03:09:18.335Z,4.19
2023-11-12T03:11:47.567Z,4.22
2023-11-12T03:14:18.746Z,4.18
2023-11-12T03:16:46.578Z,4.10
2023-11-12T03:19:14.393Z,4.09
2023-11-12T03:21:42.347Z,4.16
2023-11-12T03:24:11.162Z,4.20
2023-11-12T03:26:38.895Z,4.13
2023-11-12T03:29:06.786Z,4.08
2023-11-12T03:31:36.840Z,4.09
2023-11-12T03:34:06.794Z,3.97
2023-11-12T03:36:34.692Z,3.77
2023-11-12T03:39:02.450Z,3.79
2023-11-12T03:41:30.223Z,3.67
2023-11-12T03:43:57.962Z,3.56
2023-11-12T03:46:25.688Z,3.47
2023-11-12T03:48:54.873Z,3.51
2023-11-12T03:51:22.656Z,3.53
2023-11-12T03:53:50.870Z,3.62
2023-11-12T03:56:19.124Z,3.65
2023-11-12T03:58:47.165Z,3.75
2023-11-12T04:01:14.909Z,3.71
2023-11-12T04:03:42.850Z,3.73
2023-11-12T04:06:12.524Z,3.68
2023-11-12T04:08:40.256Z,3.74
2023-11-12T04:11:08.277Z,3.80
2023-11-12T04:13:36.060Z,3.81
2023-11-12T04:16:03.766Z,3.81
2023-11-12T04:18:31.518Z,3.76
2023-11-12T04:21:00.590Z,3.64
2023-11-12T04:23:29.756Z,3.62
2023-11-12T04:25:57.520Z,3.69
2023-11-12T04:28:28.281Z,3.53
2023-11-12T04:30:57.234Z,3.55
2023-11-12T04:33:25.072Z,3.57
2023-11-12T04:35:53.670Z,3.45
2023-11-12T04:38:21.864Z,3.48
2023-11-12T04:40:50.945Z,3.56
2023-11-12T04:43:18.759Z,3.51
2023-11-12T04:45:46.774Z,3.36
2023-11-12T04:48:14.773Z,3.47
2023-11-12T04:50:43.238Z,3.50
2023-11-12T04:53:11.102Z,3.50
2023-11-12T04:55:39.448Z,3.57
2023-11-12T04:58:08.570Z,3.66
2023-11-12T05:00:36.347Z,3.65
2023-11-12T05:03:06.259Z,3.59
2023-11-12T05:05:34.504Z,3.65
2023-11-12T05:08:02.245Z,3.56
2023-11-12T05:10:44.419Z,3.46
2023-11-12T05:13:15.263Z,3.34
2023-11-12T05:15:43.219Z,3.32
2023-11-12T05:18:11.836Z,3.42
2023-11-12T05:20:39.689Z,3.36
2023-11-12T05:23:07.810Z,3.49
2023-11-12T05:25:35.591Z,3.50
2023-11-12T05:28:05.307Z,3.59
2023-11-12T05:30:35.714Z,3.63
2023-11-12T05:33:03.669Z,3.66
2023-11-12T05:35:31.573Z,3.58
2023-11-12T05:37:59.471Z,3.51
2023-11-12T05:40:27.219Z,3.51
2023-11-12T05:42:55.003Z,3.45
2023-11-12T05:45:22.832Z,3.51
2023-11-12T05:47:51.888Z,3.58
2023-11-12T05:50:20.893Z,3.59
2023-11-12T05:52:48.734Z,3.57
2023-11-12T05:55:16.943Z,3.61
2023-11-12T05:57:45.166Z,3.62
2023-11-12T06:00:14.269Z,3.63
2023-11-12T06:02:42.786Z,3.68
2023-11-12T06:05:11.929Z,3.63
2023-11-12T06:07:39.667Z,3.58
2023-11-12T06:10:08.308Z,3.58
2023-11-12T06:12:36.075Z,3.53
2023-11-12T06:15:07.064Z,3.57
2023-11-12T06:17:34.899Z,3.58
2023-11-12T06:20:04.455Z,3.57
2023-11-12T06:22:33.636Z,3.65
2023-11-12T06:25:01.411Z,3.64
2023-11-12T06:27:29.293Z,3.76
2023-11-12T06:29:57.079Z,3.78
2023-11-12T06:32:24.852Z,3.82
2023-11-12T06:34:52.550Z,3.81
2023-11-12T06:37:20.277Z,3.87
2023-11-12T06:39:49.433Z,3.96
2023-11-12T06:42:17.439Z,3.99
2023-11-12T06:44:45.157Z,3.95
2023-11-12T06:47:12.914Z,3.98
2023-11-12T06:49:41.845Z,4.02
2023-11-12T06:52:09.624Z,4.05
2023-11-12T06:54:37.405Z,4.10
2023-11-12T06:57:06.726Z,4.06
2023-11-12T06:59:34.479Z,4.11
2023-11-12T07:02:02.324Z,4.13
2023-11-12T07:04:30.111Z,4.12
2023-11-12T07:07:06.439Z,4.16
2023-11-12T07:09:42.415Z,4.23
2023-11-12T07:12:11.715Z,4.27
2023-11-12T07:14:40.481Z,4.35
2023-11-12T07:17:08.603Z,4.39
2023-11-12T07:19:37.454Z,4.47
2023-11-12T07:22:07.225Z,4.39
2023-11-12T07:24:36.849Z,4.46
2023-11-12T07:27:04.998Z,4.54
2023-11-12T07:29:34.645Z,4.55
2023-11-12T07:32:02.499Z,4.68
2023-11-12T07:34:30.241Z,4.75
2023-11-12T07:36:58.269Z,4.77
2023-11-12T07:39:26.028Z,4.70
2023-11-12T07:41:53.953Z,4.64
2023-11-12T07:44:21.702Z,4.65
2023-11-12T07:46:50.849Z,4.61
2023-11-12T07:49:18.650Z,4.64
2023-11-12T07:51:49.646Z,4.70
2023-11-12T07:54:17.909Z,4.63
2023-11-12T07:56:46.241Z,4.65
2023-11-12T07:59:14.150Z,4.72
2023-11-12T08:01:42.610Z,4.66
2023-11-12T08:04:11.961Z,4.72
2023-11-12T08:06:40.237Z,4.68
2023-11-12T08:09:09.210Z,4.63
2023-11-12T08:11:41.334Z,4.73
2023-11-12T08:14:11.368Z,4.82
2023-11-12T08:16:39.623Z,4.84
2023-11-12T08:19:08.100Z,4.92
2023-11-12T08:21:37.264Z,5.04
2023-11-12T08:24:06.011Z,5.16
2023-11-12T08:26:39.720Z,5.26
2023-11-12T08:29:08.764Z,5.28
2023-11-12T08:31:37.378Z,5.32
2023-11-12T08:34:05.932Z,5.45
2023-11-12T08:36:33.980Z,5.49
2023-11-12T08:39:05.321Z,5.54
2023-11-12T08:41:34.431Z,5.56
2023-11-12T08:44:02.442Z,5.65
2023-11-12T08:46:30.297Z,5.68
2023-11-12T08:48:58.264Z,5.65
2023-11-12T08:51:26.033Z,5.58
2023-11-12T08:53:53.780Z,5.67
2023-11-12T08:56:22.839Z,5.75
2023-11-12T08:58:50.847Z,5.69
2023-11-12T09:01:18.973Z,5.62
2023-11-12T09:03:46.831Z,5.62
2023-11-12T09:06:14.910Z,5.63
2023-11-12T09:08:42.840Z,5.74
2023-11-12T09:11:14.734Z,5.78
2023-11-12T09:13:46.227Z,5.92
2023-11-12T09:16:14.385Z,6.01
2023-11-12T09:18:42.474Z,6.09
2023-11-12T09:21:10.856Z,6.15
2023-11-12T09:23:39.482Z,6.19
2023-11-12T09:26:07.208Z,6.35
2023-11-12T09:28:35.030Z,6.46
2023-11-12T09:31:06.368Z,6.61
2023-11-12T09:33:34.294Z,6.58
2023-11-12T09:36:02.238Z,6.60
2023-11-12T09:38:29.991Z,6.60
2023-11-12T09:41:01.080Z,6.64
2023-11-12T09:43:30.983Z,6.57
2023-11-12T09:45:59.398Z,6.53
2023-11-12T09:48:33.756Z,6.50
2023-11-12T09:51:06.438Z,6.65
2023-11-12T09:53:35.723Z,6.68
2023-11-12T09:56:10.352Z,6.57
2023-11-12T09:58:38.821Z,6.56
2023-11-12T10:01:08.344Z,6.61
2023-11-12T10:03:38.070Z,6.76
2023-11-12T10:06:07.113Z,6.85
2023-11-12T10:08:35.653Z,6.91
2023-11-12T10:11:16.269Z,6.87
2023-11-12T10:13:44.783Z,6.94
2023-11-12T10:16:26.716Z,7.03
2023-11-12T10:19:09.910Z,7.12
2023-11-12T10:21:37.615Z,7.11
2023-11-12T10:24:07.018Z,7.14
2023-11-12T10:26:37.656Z,7.21
2023-11-12T10:29:08.767Z,7.23
2023-11-12T10:31:38.727Z,7.25
2023-11-12T10:34:09.005Z,7.21
2023-11-12T10:36:37.310Z,7.21
2023-11-12T10:39:06.692Z,7.29
2023-11-12T10:41:36.263Z,7.41
2023-11-12T10:44:05.333Z,7.49
2023-11-12T10:46:37.485Z,7.48
2023-11-12T10:49:09.880Z,7.63
2023-11-12T10:51:41.252Z,7.76
2023-11-12T10:54:11.138Z,7.93
2023-11-12T10:56:39.013Z,8.14
2023-11-12T10:59:09.522Z,8.31
2023-11-12T11:01:39.019Z,8.56
2023-11-12T11:04:11.125Z,8.73
2023-11-12T11:06:43.105Z,8.84
2023-11-12T11:09:11.388Z,8.89
2023-11-12T11:11:39.388Z,8.89
2023-11-12T11:14:22.906Z,9.00
2023-11-12T11:16:52.750Z,9.01
2023-11-12T11:19:21.116Z,9.11
2023-11-12T11:22:27.734Z,9.23
2023-11-12T11:24:56.531Z,9.32
2023-11-12T11:27:26.306Z,9.44
2023-11-12T11:30:14.003Z,9.54
2023-11-12T11:32:58.774Z,9.56
2023-11-12T11:35:27.985Z,9.70
2023-11-12T11:38:14.378Z,9.67
2023-11-12T11:40:46.105Z,9.68
2023-11-12T11:43:39.750Z,9.65
2023-11-12T11:46:15.126Z,9.67
2023-11-12T11:49:20.554Z,9.59
2023-11-12T11:51:50.057Z,9.60
2023-11-12T11:54:20.659Z,9.48
2023-11-12T11:56:48.664Z,9.43
2023-11-12T11:59:16.790Z,9.41
2023-11-12T12:01:47.871Z,9.51
2023-11-12T12:04:16.682Z,9.43
2023-11-12T12:06:45.940Z,9.35
2023-11-12T12:09:19.745Z,9.36
2023-11-12T12:11:49.909Z,9.33
2023-11-12T12:14:17.760Z,9.30
2023-11-12T12:16:47.002Z,9.30
2023-11-12T12:19:19.464Z,9.28
2023-11-12T12:21:51.780Z,9.28
2023-11-12T12:24:22.703Z,9.25
2023-11-12T12:26:52.901Z,9.27
2023-11-12T12:29:22.011Z,9.24
2023-11-12T12:31:50.326Z,9.27
2023-11-12T12:34:19.011Z,9.27
2023-11-12T12:37:11.085Z,9.27
2023-11-12T12:39:51.545Z,9.27
2023-11-12T12:42:23.848Z,9.32
2023-11-12T12:44:52.825Z,9.36
2023-11-12T12:47:31.680Z,9.34
2023-11-12T12:50:00.591Z,9.28
2023-11-12T12:52:28.828Z,9.29
2023-11-12T12:54:56.786Z,9.23
2023-11-12T12:57:26.023Z,9.21
2023-11-12T12:59:53.926Z,9.16
2023-11-12T13:02:23.439Z,9.19
2023-11-12T13:04:53.359Z,9.25
2023-11-12T13:07:22.703Z,9.24
2023-11-12T13:09:51.302Z,9.14
2023-11-12T13:12:19.252Z,9.13
2023-11-12T13:14:48.782Z,9.18
2023-11-12T13:17:17.364Z,9.33
2023-11-12T13:19:45.948Z,9.41
2023-11-12T13:22:13.754Z,9.44
2023-11-12T13:24:43.332Z,9.41
2023-11-12T13:27:12.227Z,9.42
2023-11-12T13:29:42.043Z,9.39
2023-11-12T13:32:11.325Z,9.36
2023-11-12T13:34:39.339Z,9.31
2023-11-12T13:37:07.040Z,9.28
2023-11-12T13:39:34.765Z,9.25
2023-11-12T13:42:03.999Z,9.18
2023-11-12T13:44:35.608Z,9.18
2023-11-12T13:47:03.465Z,9.21
2023-11-12T13:49:35.437Z,9.15
2023-11-12T13:52:07.100Z,9.10
2023-11-12T13:54:35.980Z,9.06
2023-11-12T13:57:04.980Z,9.15
2023-11-12T13:59:32.748Z,9.16
2023-11-12T14:02:01.012Z,9.13
2023-11-12T14:04:29.073Z,9.15
2023-11-12T14:06:59.287Z,9.17
2023-11-12T14:09:27.338Z,9.05
2023-11-12T14:11:56.242Z,9.09
2023-11-12T14:14:23.954Z,9.05
2023-11-12T14:16:52.731Z,9.06
2023-11-12T14:19:20.896Z,9.05
2023-11-12T14:21:49.659Z,9.10
2023-11-12T14:24:18.776Z,9.08
2023-11-12T14:26:48.288Z,9.06
2023-11-12T14:29:17.098Z,9.10
2023-11-12T14:31:44.911Z,9.06
2023-11-12T14:34:14.326Z,9.02
2023-11-12T14:36:42.548Z,9.09
2023-11-12T14:39:12.146Z,9.05
2023-11-12T14:41:41.844Z,8.91
2023-11-12T14:44:09.890Z,8.82
2023-11-12T14:46:38.123Z,8.85
2023-11-12T14:49:06.778Z,8.81
2023-11-12T14:51:37.551Z,8.87
2023-11-12T14:54:06.534Z,8.90
2023-11-12T14:56:34.460Z,8.94
2023-11-12T14:59:04.994Z,8.91
2023-11-12T15:01:31.928Z,8.93
2023-11-12T15:04:00.039Z,8.95
2023-11-12T15:06:28.563Z,8.93
2023-11-12T15:08:57.789Z,8.97
2023-11-12T15:11:25.775Z,8.91
2023-11-12T15:13:54.457Z,8.89
2023-11-12T15:16:26.653Z,8.92
2023-11-12T15:18:54.848Z,8.91
2023-11-12T15:21:24.080Z,8.85
2023-11-12T15:23:55.241Z,8.84
2023-11-12T15:26:23.053Z,8.79
2023-11-12T15:28:52.635Z,8.84
2023-11-12T15:31:20.596Z,8.86
2023-11-12T15:33:50.059Z,8.82
2023-11-12T15:36:18.103Z,8.78
2023-11-12T15:38:46.042Z,8.75
2023-11-12T15:41:14.779Z,8.67
2023-11-12T15:43:43.233Z,8.71
2023-11-12T15:46:13.907Z,8.71
2023-11-12T15:48:42.280Z,8.71
2023-11-12T15:51:11.540Z,8.74
2023-11-12T15:53:39.310Z,8.79
2023-11-12T15:56:07.247Z,8.77
2023-11-12T15:58:34.974Z,8.74
2023-11-12T16:01:02.810Z,8.68
2023-11-12T16:03:30.835Z,8.62
2023-11-12T16:05:59.282Z,8.52
2023-11-12T16:08:28.399Z,8.51
2023-11-12T16:10:56.209Z,8.51
2023-11-12T16:13:24.574Z,8.49
2023-11-12T16:15:52.937Z,8.53
2023-11-12T16:18:21.592Z,8.51
2023-11-12T16:20:49.423Z,8.50
2023-11-12T16:23:17.416Z,8.48
2023-11-12T16:25:46.609Z,8.37
2023-11-12T16:28:14.605Z,8.41
2023-11-12T16:30:42.546Z,8.42
2023-11-12T16:33:11.334Z,8.37
2023-11-12T16:35:39.256Z,8.41
2023-11-12T16:38:08.359Z,8.32
2023-11-12T16:40:36.770Z,8.31
2023-11-12T16:43:06.250Z,8.29
2023-11-12T16:45:34.142Z,8.18
2023-11-12T16:48:02.103Z,8.22
2023-11-12T16:50:30.880Z,8.28
2023-11-12T16:52:58.608Z,8.17
2023-11-12T16:55:26.541Z,8.10
2023-11-12T16:57:54.578Z,8.12
2023-11-12T17:00:25.833Z,8.08
2023-11-12T17:02:53.673Z,8.05
2023-11-12T17:05:21.793Z,8.01
2023-11-12T17:07:49.656Z,8.00
2023-11-12T17:10:19.030Z,8.00
2023-11-12T17:12:48.024Z,7.99
2023-11-12T17:15:15.796Z,8.01
2023-11-12T17:17:47.781Z,8.00
2023-11-12T17:20:17.207Z,8.07
2023-11-12T17:22:45.539Z,8.18
2023-11-12T17:25:13.714Z,8.12
2023-11-12T17:27:42.732Z,8.05
2023-11-12T17:30:12.902Z,8.08
2023-11-12T17:32:40.853Z,8.09
2023-11-12T17:35:12.383Z,8.11
2023-11-12T17:37:40.136Z,8.10
2023-11-12T17:40:09.859Z,8.12
2023-11-12T17:42:38.338Z,8.05
2023-11-12T17:45:07.535Z,7.98
2023-11-12T17:47:36.760Z,7.95
2023-11-12T17:50:04.723Z,7.96
2023-11-12T17:52:33.789Z,8.02
2023-11-12T17:55:02.320Z,8.05
2023-11-12T17:57:31.852Z,8.15
2023-11-12T18:00:00.135Z,8.15
2023-11-12T18:02:28.134Z,8.16
2023-11-12T18:04:56.726Z,8.18
2023-11-12T18:07:24.632Z,8.17
2023-11-12T18:09:54.212Z,8.18
2023-11-12T18:12:22.363Z,8.09
2023-11-12T18:14:50.152Z,8.18
2023-11-12T18:17:17.921Z,8.21
2023-11-12T18:19:45.649Z,8.12
2023-11-12T18:22:15.258Z,8.08
2023-11-12T18:24:44.981Z,8.03
2023-11-12T18:27:14.101Z,8.03
2023-11-12T18:29:41.808Z,8.03
2023-11-12T18:32:11.055Z,8.04
2023-11-12T18:34:38.793Z,8.13
2023-11-12T18:37:10.186Z,8.14
2023-11-12T18:39:38.017Z,8.12
2023-11-12T18:42:06.933Z,8.13
2023-11-12T18:44:36.619Z,8.10
2023-11-12T18:47:06.753Z,8.16
2023-11-12T18:49:34.819Z,8.14
2023-11-12T18:52:03.209Z,8.14
2023-11-12T18:54:31.668Z,8.12
2023-11-12T18:56:59.437Z,8.06
2023-11-12T18:59:27.187Z,8.03
2023-11-12T19:01:56.266Z,8.16
2023-11-12T19:04:24.174Z,8.15
2023-11-12T19:06:52.069Z,8.13
2023-11-12T19:09:21.243Z,8.22
2023-11-12T19:11:49.061Z,8.24
2023-11-12T19:14:18.397Z,8.26
2023-11-12T19:16:46.522Z,8.26
2023-11-12T19:19:15.813Z,8.24
2023-11-12T19:21:43.627Z,8.28
2023-11-12T19:24:13.831Z,8.17
2023-11-12T19:26:41.611Z,8.12
2023-11-12T19:29:09.475Z,8.12
2023-11-12T19:31:38.895Z,8.12
2023-11-12T19:34:06.901Z,8.11
2023-11-12T19:36:36.996Z,8.10
2023-11-12T19:39:05.083Z,8.12
2023-11-12T19:41:32.968Z,8.18
2023-11-12T19:44:03.370Z,8.13
2023-11-12T19:46:31.850Z,8.06
2023-11-12T19:48:59.918Z,8.02
2023-11-12T19:51:28.640Z,7.94
2023-11-12T19:53:57.802Z,7.97
2023-11-12T19:56:25.562Z,7.93
2023-11-12T19:58:54.967Z,7.95
2023-11-12T20:01:24.722Z,7.95
2023-11-12T20:03:52.622Z,7.94
2023-11-12T20:06:22.796Z,7.89
2023-11-12T20:08:50.897Z,7.97
2023-11-12T20:11:22.665Z,8.01
2023-11-12T20:13:53.405Z,8.01
2023-11-12T20:16:21.814Z,8.04
2023-11-12T20:18:49.761Z,8.07
2023-11-12T20:21:17.512Z,8.03
2023-11-12T20:23:53.760Z,8.04
2023-11-12T20:26:23.246Z,7.94
2023-11-12T20:28:51.154Z,8.01
2023-11-12T20:31:19.385Z,8.01
2023-11-12T20:33:48.164Z,8.04
2023-11-12T20:36:16.076Z,7.97
2023-11-12T20:38:45.996Z,7.90
2023-11-12T20:41:13.730Z,7.88
2023-11-12T20:43:43.726Z,7.91
2023-11-12T20:46:12.952Z,7.96
2023-11-12T20:48:42.278Z,8.00
2023-11-12T20:51:10.409Z,8.01
2023-11-12T20:53:38.228Z,8.02
2023-11-12T20:56:06.943Z,7.87
2023-11-12T20:58:35.523Z,7.90
2023-11-12T21:01:04.872Z,7.89
2023-11-12T21:03:33.930Z,7.92
2023-11-12T21:06:02.004Z,7.94
2023-11-12T21:08:29.812Z,8.01
2023-11-12T21:10:58.077Z,7.97
2023-11-12T21:13:25.971Z,7.87
2023-11-12T21:15:56.621Z,7.92
2023-11-12T21:18:27.134Z,7.96
2023-11-12T21:20:55.108Z,7.94
2023-11-12T21:23:22.886Z,7.94
2023-11-12T21:25:53.288Z,7.91
2023-11-12T21:28:21.557Z,7.85
2023-11-12T21:30:50.284Z,7.76
2023-11-12T21:33:17.994Z,7.71
2023-11-12T21:44:30.907Z,7.74
2023-11-12T21:46:59.545Z,7.82
2023-11-12T21:49:28.384Z,7.76
2023-11-12T21:51:58.360Z,7.70
2023-11-12T21:54:27.183Z,7.78
2023-11-12T21:56:56.207Z,7.83
2023-11-12T21:59:24.276Z,7.83
2023-11-12T22:01:53.520Z,7.70
2023-11-12T22:04:23.605Z,7.62
2023-11-12T22:06:52.149Z,7.65
2023-11-12T22:09:21.484Z,7.63
2023-11-12T22:11:51.153Z,7.67
2023-11-12T22:14:18.998Z,7.68
2023-11-12T22:16:47.152Z,7.60
2023-11-12T22:19:15.023Z,7.56
2023-11-12T22:21:44.764Z,7.57
2023-11-12T22:24:12.841Z,7.59
2023-11-12T22:26:42.653Z,7.58
2023-11-12T22:29:10.412Z,7.55
2023-11-12T22:31:38.197Z,7.52
2023-11-12T22:34:06.027Z,7.53
2023-11-12T22:36:33.802Z,7.49
2023-11-12T22:39:01.514Z,7.54
2023-11-12T22:41:29.271Z,7.59
2023-11-12T22:43:59.249Z,7.60
2023-11-12T22:46:27.267Z,7.61
2023-11-12T22:48:55.173Z,7.65
2023-11-12T22:51:23.235Z,7.68
2023-11-12T22:53:52.182Z,7.60
2023-11-12T22:56:21.189Z,7.66
2023-11-12T22:58:51.210Z,7.63
2023-11-12T23:01:22.875Z,7.59
2023-11-12T23:03:50.766Z,7.60
2023-11-12T23:06:20.112Z,7.64
2023-11-12T23:08:48.338Z,7.63
2023-11-12T23:11:16.175Z,7.66
2023-11-12T23:13:44.386Z,7.68
2023-11-12T23:16:13.775Z,7.75
2023-11-12T23:18:42.860Z,7.71
2023-11-12T23:21:11.240Z,7.67
2023-11-12T23:23:39.309Z,7.65
2023-11-12T23:26:07.112Z,7.62
2023-11-12T23:28:36.322Z,7.65
2023-11-12T23:31:04.611Z,7.52
2023-11-12T23:33:32.966Z,7.47
2023-11-12T23:36:03.239Z,7.52
2023-11-12T23:38:30.992Z,7.58
2023-11-12T23:40:58.799Z,7.58
2023-11-12T23:43:26.993Z,7.57
2023-11-12T23:45:54.741Z,7.53
2023-11-12T23:48:22.598Z,7.55
2023-11-12T23:50:50.230Z,7.56
2023-11-12T23:53:22.895Z,7.59
2023-11-12T23:55:50.586Z,7.56
2023-11-12T23:58:18.454Z,7.63
